Fedora — SLKU — position and weather

sailwx.info

Track history (hours):
 
Tides and Currents Weather Stations Pressure Air Temp Water Temp Dewpoint Dewpoint Depression Visibility Wind Speed Wind Dir Waves Ship Positions

Fedora

Last reported at 2015-Mar-30 17:33 UTC. Time now 2015-Mar-30 20:06 UTC.
Position N 51°21' W 003°09'.

Length 228 m; draft 9.2 m.

Type: Cargo ship. MMSI: 266259000.

Date/timePositionNaut miles runAvg speedWind from/ knotsBaromVisibWave heightAir tempDewpointWater temp
2015-Mar-30 17:33N 51°21' W 003°09'1515.6
2015-Mar-30 16:34N 51°30' W 002°48'3 3.3
2015-Mar-30 15:33N 51°30' W 002°43'0 0.1
2015-Mar-30 14:33N 51°30' W 002°43'0 0.0
2015-Mar-30 13:33N 51°30' W 002°43'0 0.0
2015-Mar-30 12:33N 51°30' W 002°43'0 0.0
2015-Mar-30 11:33N 51°30' W 002°43'0 0.0
2015-Mar-30 10:33N 51°30' W 002°43'0 0.0
2015-Mar-30 09:33N 51°30' W 002°43'0 0.0
2015-Mar-30 08:33N 51°30' W 002°43'0 0.0
2015-Mar-30 07:33N 51°30' W 002°43'0 0.0
2015-Mar-30 06:30N 51°30' W 002°43'0 0.1
2015-Mar-30 05:33N 51°30' W 002°43'1 0.7
2015-Mar-30 04:33N 51°30' W 002°44'6 6.5
2015-Mar-30 03:33N 51°28' W 002°54'1110.8
2015-Mar-30 02:33N 51°22' W 003°08'47 3.2
2015-Mar-29 12:00N 51°06' W 004°18'33 7.3 270 / 391099.9 1.1 10.0 9.1
2015-Mar-29 07:28N 50°49' W 005°03'9 9.4
2015-Mar-29 06:33N 50°43' W 005°13'1414.3
2015-Mar-29 05:33N 50°34' W 005°30'26214.9
2015-Mar-28 12:00N 46°30' W 007°54'10216.9 230 / 231024.6 2.2 12.8 13.0
2015-Mar-28 06:00N 44°54' W 008°42'19816.5 250 / 191029.310.8 0.512.2 13.0
2015-Mar-27 18:00N 41°42' W 009°48'11419.0 320 / 141032.4 5.4 0.512.4 13.9
2015-Mar-27 12:00N 39°48' W 009°54'2315.7 360 / 101032.010.8 13.8 14.1
2015-Mar-27 10:32N 39°25' W 009°52'1716.9
2015-Mar-27 09:33N 39°08' W 009°52'1716.9
2015-Mar-27 08:33N 38°51' W 009°51'1717.1
2015-Mar-27 07:33N 38°35' W 009°49'1717.3
2015-Mar-27 06:33N 38°18' W 009°43'1323.7
2015-Mar-27 06:00N 38°06' W 009°36'511.2 010 / 161028.810.8 1.012.9 14.9
2015-Mar-27 05:33N 38°01' W 009°38'1717.2
2015-Mar-27 04:33N 37°45' W 009°34'1817.2
2015-Mar-27 03:32N 37°27' W 009°29'1916.5
2015-Mar-27 02:22N 37°09' W 009°24'1816.2
2015-Mar-27 01:16N 36°51' W 009°18'2016.5
2015-Mar-27 00:05N 36°41' W 008°57'330.6
2015-Mar-27 00:00N 36°42' W 008°54'715.6 360 / 231027.910.8 13.7 15.8
2015-Mar-26 23:33N 36°38' W 008°47'1716.8
2015-Mar-26 22:33N 36°33' W 008°27'14016.6
2015-Mar-26 14:09N 35°58' W 005°39'914.8
2015-Mar-26 13:33N 35°60' W 005°29'1414.4
2015-Mar-26 12:34N 36°03' W 005°11'20116.5
2015-Mar-26 00:22N 37°07' W 001°13'820.0
2015-Mar-26 00:00N 37°12' W 001°06'715.5 340 / 231011.810.8 12.5 15.5
2015-Mar-25 23:33N 37°16' W 000°59'1717.4
2015-Mar-25 22:33N 37°28' W 000°43'1818.0
2015-Mar-25 21:33N 37°41' W 000°28'1817.9
2015-Mar-25 20:33N 37°56' W 000°15'4517.7
2015-Mar-25 18:00N 38°36' E 000°12'5716.5 020 / 81006.610.8 0.511.8 14.2
2015-Mar-25 14:33N 39°30' W 000°09'8 8.5
2015-Mar-25 13:33N 39°38' W 000°13'0 0.0
2015-Mar-25 12:32N 39°38' W 000°13'0 0.0
2015-Mar-25 11:32N 39°38' W 000°13'0 0.0
2015-Mar-25 10:32N 39°38' W 000°13'0 0.0
2015-Mar-25 09:32N 39°38' W 000°13'0 0.0
2015-Mar-25 08:32N 39°38' W 000°13'0 0.0
2015-Mar-25 07:32N 39°38' W 000°13'0 0.0
2015-Mar-25 06:32N 39°38' W 000°13'0 0.2
2015-Mar-25 05:33N 39°38' W 000°13'6 5.4
2015-Mar-25 04:32N 39°36' W 000°07'7 7.1
2015-Mar-25 03:33N 39°36' E 000°02'22 6.2
2015-Mar-25 00:00N 39°30' E 000°30'28 7.3 360 / 311002.510.8 11.9 14.5
2015-Mar-24 20:08N 39°23' E 001°05'4 7.1
2015-Mar-24 19:33N 39°22' E 001°10'7 6.9
2015-Mar-24 18:33N 39°20' E 001°19'5 8.1
2015-Mar-24 18:00N 39°18' E 001°24'3 6.1 030 / 141002.210.8 1.013.7 15.2
2015-Mar-24 17:33N 39°19' E 001°27'7 6.9
2015-Mar-24 16:32N 39°17' E 001°36'7 6.6
2015-Mar-24 15:33N 39°16' E 001°44'7 6.7
2015-Mar-24 14:33N 39°14' E 001°53'7 6.7
2015-Mar-24 13:33N 39°12' E 002°01'7 6.8
2015-Mar-24 12:33N 39°11' E 002°10'10 9.7
2015-Mar-24 11:33N 39°08' E 002°22'1818.6
2015-Mar-24 10:33N 39°04' E 002°45'1919.1
2015-Mar-24 09:33N 38°60' E 003°09'2019.2
2015-Mar-24 08:32N 38°55' E 003°34'3714.5
2015-Mar-24 06:00N 38°42' E 004°18'8514.2 100 / 191002.310.8 1.514.2 15.3
2015-Mar-24 00:00N 38°30' E 006°06'8413.9 090 / 121006.410.8 14.3 15.3
2015-Mar-23 18:00N 38°06' E 007°48'3815.3 080 / 231008.010.8 1.514.0 15.7
2015-Mar-23 15:32N 37°59' E 008°35'4913.9
2015-Mar-23 12:00N 37°48' E 009°36'8414.1 090 / 141013.410.8 16.1 15.5
2015-Mar-23 06:00N 37°24' E 011°18'8514.1 330 / 101013.810.8 0.513.5 15.2
2015-Mar-23 00:00N 36°48' E 012°54'1610.9 320 / 101012.1 5.4 14.2 15.7
2015-Mar-22 22:33N 36°43' E 013°12'1313.5
2015-Mar-22 21:33N 36°38' E 013°28'1313.4
2015-Mar-22 20:33N 36°33' E 013°43'1313.0
2015-Mar-22 19:33N 36°28' E 013°59'1312.7
2015-Mar-22 18:33N 36°23' E 014°13'1312.8
2015-Mar-22 17:33N 36°19' E 014°28'1413.0
2015-Mar-22 16:28N 36°13' E 014°44'6013.3
2015-Mar-22 12:00N 35°54' E 015°54'16513.8 160 / 161009.1 2.2 16.8 15.7
2015-Mar-22 00:00N 34°48' E 019°00'8013.3 140 / 191018.410.8 14.5 16.8
2015-Mar-21 18:00N 34°18' E 020°30'9014.9 100 / 171020.410.8 1.013.6 16.8
2015-Mar-21 12:00N 33°48' E 022°12'16213.5 090 / 141022.110.8 14.9 17.1
2015-Mar-21 00:00N 32°48' E 025°12'8013.3 320 / 141018.510.8 15.0 17.2
2015-Mar-20 18:00N 32°24' E 026°42'   310 / 121018.010.8 15.1 17.7
Track history (hours):
 
Tides and Currents Weather Stations Pressure Air Temp Water Temp Dewpoint Dewpoint Depression Visibility Wind Speed Wind Dir Waves Ship Positions

Fedora

Last reported at 2015-Mar-30 17:33 UTC. Time now 2015-Mar-30 20:06 UTC.
Position N 51°21' W 003°09'.

Length 228 m; draft 9.2 m.

Type: Cargo ship. MMSI: 266259000.

Date/timePositionNaut miles runAvg speedWind from/ knotsBaromVisibWave heightAir tempDewpointWater temp
2015-Mar-30 17:33N 51°21' W 003°09'1515.6
2015-Mar-30 16:34N 51°30' W 002°48'3 3.3
2015-Mar-30 15:33N 51°30' W 002°43'0 0.1
2015-Mar-30 14:33N 51°30' W 002°43'0 0.0
2015-Mar-30 13:33N 51°30' W 002°43'0 0.0
2015-Mar-30 12:33N 51°30' W 002°43'0 0.0
2015-Mar-30 11:33N 51°30' W 002°43'0 0.0
2015-Mar-30 10:33N 51°30' W 002°43'0 0.0
2015-Mar-30 09:33N 51°30' W 002°43'0 0.0
2015-Mar-30 08:33N 51°30' W 002°43'0 0.0
2015-Mar-30 07:33N 51°30' W 002°43'0 0.0
2015-Mar-30 06:30N 51°30' W 002°43'0 0.1
2015-Mar-30 05:33N 51°30' W 002°43'1 0.7
2015-Mar-30 04:33N 51°30' W 002°44'6 6.5
2015-Mar-30 03:33N 51°28' W 002°54'1110.8
2015-Mar-30 02:33N 51°22' W 003°08'47 3.2
2015-Mar-29 12:00N 51°06' W 004°18'33 7.3 270 / 391099.9 1.1 10.0 9.1
2015-Mar-29 07:28N 50°49' W 005°03'9 9.4
2015-Mar-29 06:33N 50°43' W 005°13'1414.3
2015-Mar-29 05:33N 50°34' W 005°30'26214.9
2015-Mar-28 12:00N 46°30' W 007°54'10216.9 230 / 231024.6 2.2 12.8 13.0
2015-Mar-28 06:00N 44°54' W 008°42'19816.5 250 / 191029.310.8 0.512.2 13.0
2015-Mar-27 18:00N 41°42' W 009°48'11419.0 320 / 141032.4 5.4 0.512.4 13.9
2015-Mar-27 12:00N 39°48' W 009°54'2315.7 360 / 101032.010.8 13.8 14.1
2015-Mar-27 10:32N 39°25' W 009°52'1716.9
2015-Mar-27 09:33N 39°08' W 009°52'1716.9
2015-Mar-27 08:33N 38°51' W 009°51'1717.1
2015-Mar-27 07:33N 38°35' W 009°49'1717.3
2015-Mar-27 06:33N 38°18' W 009°43'1323.7
2015-Mar-27 06:00N 38°06' W 009°36'511.2 010 / 161028.810.8 1.012.9 14.9
2015-Mar-27 05:33N 38°01' W 009°38'1717.2
2015-Mar-27 04:33N 37°45' W 009°34'1817.2
2015-Mar-27 03:32N 37°27' W 009°29'1916.5
2015-Mar-27 02:22N 37°09' W 009°24'1816.2
2015-Mar-27 01:16N 36°51' W 009°18'2016.5
2015-Mar-27 00:05N 36°41' W 008°57'330.6
2015-Mar-27 00:00N 36°42' W 008°54'715.6 360 / 231027.910.8 13.7 15.8
2015-Mar-26 23:33N 36°38' W 008°47'1716.8
2015-Mar-26 22:33N 36°33' W 008°27'14016.6
2015-Mar-26 14:09N 35°58' W 005°39'914.8
2015-Mar-26 13:33N 35°60' W 005°29'1414.4
2015-Mar-26 12:34N 36°03' W 005°11'20116.5
2015-Mar-26 00:22N 37°07' W 001°13'820.0
2015-Mar-26 00:00N 37°12' W 001°06'715.5 340 / 231011.810.8 12.5 15.5
2015-Mar-25 23:33N 37°16' W 000°59'1717.4
2015-Mar-25 22:33N 37°28' W 000°43'1818.0
2015-Mar-25 21:33N 37°41' W 000°28'1817.9
2015-Mar-25 20:33N 37°56' W 000°15'4517.7
2015-Mar-25 18:00N 38°36' E 000°12'5716.5 020 / 81006.610.8 0.511.8 14.2
2015-Mar-25 14:33N 39°30' W 000°09'8 8.5
2015-Mar-25 13:33N 39°38' W 000°13'0 0.0
2015-Mar-25 12:32N 39°38' W 000°13'0 0.0
2015-Mar-25 11:32N 39°38' W 000°13'0 0.0
2015-Mar-25 10:32N 39°38' W 000°13'0 0.0
2015-Mar-25 09:32N 39°38' W 000°13'0 0.0
2015-Mar-25 08:32N 39°38' W 000°13'0 0.0
2015-Mar-25 07:32N 39°38' W 000°13'0 0.0
2015-Mar-25 06:32N 39°38' W 000°13'0 0.2
2015-Mar-25 05:33N 39°38' W 000°13'6 5.4
2015-Mar-25 04:32N 39°36' W 000°07'7 7.1
2015-Mar-25 03:33N 39°36' E 000°02'22 6.2
2015-Mar-25 00:00N 39°30' E 000°30'28 7.3 360 / 311002.510.8 11.9 14.5
2015-Mar-24 20:08N 39°23' E 001°05'4 7.1
2015-Mar-24 19:33N 39°22' E 001°10'7 6.9
2015-Mar-24 18:33N 39°20' E 001°19'5 8.1
2015-Mar-24 18:00N 39°18' E 001°24'3 6.1 030 / 141002.210.8 1.013.7 15.2
2015-Mar-24 17:33N 39°19' E 001°27'7 6.9
2015-Mar-24 16:32N 39°17' E 001°36'7 6.6
2015-Mar-24 15:33N 39°16' E 001°44'7 6.7
2015-Mar-24 14:33N 39°14' E 001°53'7 6.7
2015-Mar-24 13:33N 39°12' E 002°01'7 6.8
2015-Mar-24 12:33N 39°11' E 002°10'10 9.7
2015-Mar-24 11:33N 39°08' E 002°22'1818.6
2015-Mar-24 10:33N 39°04' E 002°45'1919.1
2015-Mar-24 09:33N 38°60' E 003°09'2019.2
2015-Mar-24 08:32N 38°55' E 003°34'3714.5
2015-Mar-24 06:00N 38°42' E 004°18'8514.2 100 / 191002.310.8 1.514.2 15.3
2015-Mar-24 00:00N 38°30' E 006°06'8413.9 090 / 121006.410.8 14.3 15.3
2015-Mar-23 18:00N 38°06' E 007°48'3815.3 080 / 231008.010.8 1.514.0 15.7
2015-Mar-23 15:32N 37°59' E 008°35'4913.9
2015-Mar-23 12:00N 37°48' E 009°36'8414.1 090 / 141013.410.8 16.1 15.5
2015-Mar-23 06:00N 37°24' E 011°18'8514.1 330 / 101013.810.8 0.513.5 15.2
2015-Mar-23 00:00N 36°48' E 012°54'1610.9 320 / 101012.1 5.4 14.2 15.7
2015-Mar-22 22:33N 36°43' E 013°12'1313.5
2015-Mar-22 21:33N 36°38' E 013°28'1313.4
2015-Mar-22 20:33N 36°33' E 013°43'1313.0
2015-Mar-22 19:33N 36°28' E 013°59'1312.7
2015-Mar-22 18:33N 36°23' E 014°13'1312.8
2015-Mar-22 17:33N 36°19' E 014°28'1413.0
2015-Mar-22 16:28N 36°13' E 014°44'6013.3
2015-Mar-22 12:00N 35°54' E 015°54'16513.8 160 / 161009.1 2.2 16.8 15.7
2015-Mar-22 00:00N 34°48' E 019°00'8013.3 140 / 191018.410.8 14.5 16.8
2015-Mar-21 18:00N 34°18' E 020°30'9014.9 100 / 171020.410.8 1.013.6 16.8
2015-Mar-21 12:00N 33°48' E 022°12'16213.5 090 / 141022.110.8 14.9 17.1
2015-Mar-21 00:00N 32°48' E 025°12'8013.3 320 / 141018.510.8 15.0 17.2
2015-Mar-20 18:00N 32°24' E 026°42'   310 / 121018.010.8 15.1 17.7

Dump ship's entire track history